Time;durP1;ratioP1;P1;durP2;ratioP2;P2;SDS_P1;SDS_P2;PMS_P1;PMS_P2;Temp;Humidity;BMP_temperature;BMP_pressure;BME280_temperature;BME280_humidity;BME280_pressure;Samples;Min_cycle;Max_cycle;Signal;HPM_P1;HPM_P2
2024/02/10 00:01:24;;;;;;;0.82;0.82;;;;;12.40;95839.00;;;;5052250;28;20045;-62
2024/02/10 00:03:51;;;;;;;1.65;0.95;;;;;12.30;95844.00;;;;5051818;28;20049;-62
2024/02/10 00:06:17;;;;;;;1.85;0.88;;;;;12.30;95840.00;;;;5052466;28;20394;-62
2024/02/10 00:08:44;;;;;;;2.40;1.20;;;;;12.40;95853.00;;;;5052995;28;20041;-61
2024/02/10 00:11:11;;;;;;;1.38;1.13;;;;;12.40;95844.00;;;;5053036;28;20041;-61
2024/02/10 00:13:41;;;;;;;1.05;1.00;;;;;12.30;95849.00;;;;5051651;28;20486;-61
2024/02/10 00:16:10;;;;;;;1.10;1.10;;;;;12.20;95843.00;;;;5052529;28;20466;-61
2024/02/10 00:18:38;;;;;;;1.10;1.00;;;;;12.30;95839.00;;;;5050929;28;20059;-62
2024/02/10 00:21:05;;;;;;;1.35;1.00;;;;;12.30;95836.00;;;;5052046;28;20041;-61
2024/02/10 00:23:31;;;;;;;1.52;0.85;;;;;12.30;95832.00;;;;5051587;28;20041;-61
2024/02/10 00:26:03;;;;;;;1.63;1.08;;;;;12.20;95833.00;;;;5052038;28;20044;-62
2024/02/10 00:28:34;;;;;;;3.33;1.17;;;;;12.20;95838.00;;;;5052331;28;20420;-62
2024/02/10 00:31:00;;;;;;;1.48;0.90;;;;;12.20;95827.00;;;;5052517;28;20140;-62
2024/02/10 00:33:27;;;;;;;1.42;0.90;;;;;12.20;95830.00;;;;5051720;28;20549;-61
2024/02/10 00:35:53;;;;;;;1.00;1.00;;;;;12.20;95832.00;;;;5052255;28;20045;-62
2024/02/10 00:38:21;;;;;;;1.88;1.13;;;;;12.30;95825.00;;;;5052371;28;20045;-62
2024/02/10 00:40:48;;;;;;;1.17;1.05;;;;;12.30;95825.00;;;;5051893;28;20121;-61
2024/02/10 00:43:15;;;;;;;0.98;0.90;;;;;12.30;95822.00;;;;5051933;28;20516;-61
2024/02/10 00:45:46;;;;;;;0.90;0.90;;;;;12.20;95819.00;;;;5050155;28;20041;-62
2024/02/10 00:48:13;;;;;;;1.20;1.10;;;;;12.20;95816.00;;;;5052375;28;20052;-61
2024/02/10 00:50:41;;;;;;;0.80;0.80;;;;;12.20;95825.00;;;;5052361;28;20041;-62
2024/02/10 00:53:08;;;;;;;1.75;1.23;;;;;12.20;95811.00;;;;5051765;28;20496;-60
2024/02/10 00:55:35;;;;;;;1.55;1.20;;;;;12.20;95814.00;;;;5051910;28;20049;-62
2024/02/10 00:58:04;;;;;;;1.33;1.23;;;;;12.20;95818.00;;;;5050534;28;20079;-61
2024/02/10 01:00:31;;;;;;;1.30;1.20;;;;;12.20;95807.00;;;;5051851;28;20123;-62
2024/02/10 01:02:58;;;;;;;0.93;0.93;;;;;12.20;95808.00;;;;5052040;28;20075;-60
2024/02/10 01:05:25;;;;;;;0.80;0.80;;;;;12.20;95819.00;;;;5052108;28;20461;-62
2024/02/10 01:07:52;;;;;;;0.90;0.90;;;;;12.20;95811.00;;;;5052387;28;20041;-61
2024/02/10 01:10:19;;;;;;;1.65;1.30;;;;;12.30;95813.00;;;;5051809;28;20502;-60
2024/02/10 01:12:47;;;;;;;1.48;0.98;;;;;12.20;95810.00;;;;5051895;28;20044;-60
2024/02/10 01:15:14;;;;;;;0.90;0.90;;;;;12.20;95806.00;;;;5051051;28;20056;-59
2024/02/10 01:17:46;;;;;;;1.50;1.00;;;;;12.30;95807.00;;;;5051643;28;20098;-60
2024/02/10 01:20:16;;;;;;;1.30;1.20;;;;;12.40;95807.00;;;;5051433;28;20045;-61
2024/02/10 01:22:44;;;;;;;1.40;1.30;;;;;12.40;95810.00;;;;5051471;28;20048;-59
2024/02/10 01:25:12;;;;;;;1.63;1.30;;;;;12.40;95808.00;;;;5050915;28;20047;-59
2024/02/10 01:27:42;;;;;;;2.38;1.65;;;;;12.30;95808.00;;;;5051271;28;20490;-60
2024/02/10 01:30:09;;;;;;;2.33;1.10;;;;;12.20;95810.00;;;;5051514;28;20079;-58
2024/02/10 01:32:36;;;;;;;2.20;1.77;;;;;12.20;95809.00;;;;5051300;28;20045;-58
2024/02/10 01:35:03;;;;;;;1.55;1.30;;;;;12.20;95803.00;;;;5050994;28;20040;-58
2024/02/10 01:37:30;;;;;;;1.13;1.02;;;;;12.30;95806.00;;;;5052990;28;20049;-58
2024/02/10 01:39:57;;;;;;;1.58;1.48;;;;;12.20;95816.00;;;;5055081;28;20143;-61
2024/02/10 01:42:37;;;;;;;1.20;1.10;;;;;12.10;95803.00;;;;5054662;28;20149;-59
2024/02/10 01:45:11;;;;;;;2.78;1.77;;;;;12.10;95810.00;;;;5054484;28;20059;-59
2024/02/10 01:47:42;;;;;;;1.50;1.23;;;;;12.20;95808.00;;;;5054948;28;20498;-59
2024/02/10 01:50:09;;;;;;;1.23;1.13;;;;;12.10;95796.00;;;;5054777;28;20045;-59
2024/02/10 01:52:37;;;;;;;3.00;1.55;;;;;12.20;95795.00;;;;5054889;28;20136;-60
2024/02/10 01:55:05;;;;;;;1.42;1.33;;;;;12.20;95793.00;;;;5054125;28;20049;-61
2024/02/10 01:57:33;;;;;;;2.65;1.50;;;;;12.20;95786.00;;;;5053322;28;20123;-61
2024/02/10 02:00:01;;;;;;;2.15;1.75;;;;;12.10;95783.00;;;;5054535;28;20110;-61
2024/02/10 02:02:30;;;;;;;1.38;1.27;;;;;12.20;95796.00;;;;5054573;28;20072;-61
2024/02/10 02:04:59;;;;;;;1.70;1.60;;;;;12.30;95790.00;;;;5052766;28;20049;-62
2024/02/10 02:07:30;;;;;;;2.40;1.70;;;;;12.40;95794.00;;;;5053342;28;20052;-61
2024/02/10 02:10:01;;;;;;;2.50;1.92;;;;;12.40;95785.00;;;;5054605;28;20037;-61
2024/02/10 02:12:28;;;;;;;2.58;1.50;;;;;12.40;95792.00;;;;5054106;28;20099;-61
2024/02/10 02:14:57;;;;;;;2.10;1.67;;;;;12.40;95785.00;;;;5052713;28;20106;-61
2024/02/10 02:17:24;;;;;;;1.60;1.50;;;;;12.40;95787.00;;;;5054226;28;20069;-61
2024/02/10 02:19:51;;;;;;;1.90;1.70;;;;;12.50;95776.00;;;;5054320;28;20045;-60
2024/02/10 02:22:18;;;;;;;1.40;1.30;;;;;12.50;95783.00;;;;5054105;28;20083;-61
2024/02/10 02:24:46;;;;;;;2.05;1.60;;;;;12.50;95782.00;;;;5053505;28;20475;-61
2024/02/10 02:27:14;;;;;;;1.70;1.60;;;;;12.40;95785.00;;;;5052587;28;20077;-61
2024/02/10 02:29:42;;;;;;;2.53;1.50;;;;;12.40;95780.00;;;;5054032;28;20140;-61
2024/02/10 02:32:10;;;;;;;3.25;1.85;;;;;12.30;95776.00;;;;5054164;28;20037;-61
2024/02/10 02:34:37;;;;;;;2.30;1.80;;;;;12.20;95775.00;;;;5053369;28;20071;-61
2024/02/10 02:37:03;;;;;;;1.70;1.48;;;;;12.30;95771.00;;;;5054006;28;20067;-59
2024/02/10 02:39:33;;;;;;;1.90;1.63;;;;;12.30;95771.00;;;;5053949;28;20094;-58
2024/02/10 02:42:05;;;;;;;2.78;1.48;;;;;12.30;95763.00;;;;5053763;28;20077;-60
2024/02/10 02:44:33;;;;;;;1.58;1.48;;;;;12.30;95762.00;;;;5053188;28;20059;-58
2024/02/10 02:47:04;;;;;;;1.80;1.50;;;;;12.40;95767.00;;;;5054058;28;20528;-58
2024/02/10 02:49:33;;;;;;;1.83;1.73;;;;;12.40;95754.00;;;;5036094;28;20060;-58
2024/02/10 02:52:00;;;;;;;2.92;1.52;;;;;12.40;95762.00;;;;5052298;28;20047;-61
2024/02/10 02:54:26;;;;;;;2.35;1.80;;;;;12.30;95764.00;;;;5053137;28;20060;-59
2024/02/10 02:56:55;;;;;;;2.70;1.65;;;;;12.40;95758.00;;;;5052445;28;20135;-59
2024/02/10 02:59:22;;;;;;;2.47;1.73;;;;;12.50;95762.00;;;;5053441;28;20132;-60
2024/02/10 03:01:53;;;;;;;2.15;1.60;;;;;12.50;95764.00;;;;5053330;28;20382;-60
2024/02/10 03:04:20;;;;;;;3.25;1.70;;;;;12.50;95758.00;;;;5052844;28;20094;-60
2024/02/10 03:06:50;;;;;;;3.40;1.80;;;;;12.50;95757.00;;;;5053241;28;20063;-59
2024/02/10 03:09:17;;;;;;;3.22;2.05;;;;;12.50;95755.00;;;;5053297;28;20041;-59
2024/02/10 03:11:44;;;;;;;3.40;1.80;;;;;12.50;95759.00;;;;5053077;28;20108;-58
2024/02/10 03:14:11;;;;;;;3.72;1.83;;;;;12.50;95758.00;;;;5052783;28;20494;-60
2024/02/10 03:16:38;;;;;;;2.53;1.83;;;;;12.40;95751.00;;;;5053661;28;20135;-59
2024/02/10 03:19:06;;;;;;;4.25;2.20;;;;;12.40;95756.00;;;;5053525;28;20048;-60
2024/02/10 03:21:35;;;;;;;2.67;1.90;;;;;12.30;95755.00;;;;5054821;28;20065;-60
2024/02/10 03:24:03;;;;;;;4.15;2.00;;;;;12.20;95753.00;;;;5055768;28;20059;-58
2024/02/10 03:26:37;;;;;;;1.60;1.50;;;;;12.30;95757.00;;;;5056546;28;20049;-58
2024/02/10 03:29:05;;;;;;;5.00;1.50;;;;;12.40;95771.00;;;;5055933;28;20064;-59
2024/02/10 03:31:32;;;;;;;3.70;1.90;;;;;12.40;95764.00;;;;5055915;28;20072;-58
2024/02/10 03:33:59;;;;;;;3.28;1.88;;;;;12.30;95756.00;;;;5054943;28;20521;-61
2024/02/10 03:36:27;;;;;;;2.40;1.73;;;;;12.20;95752.00;;;;5056745;28;20120;-61
2024/02/10 03:38:54;;;;;;;2.08;1.50;;;;;12.30;95751.00;;;;5056669;28;20052;-61
2024/02/10 03:41:21;;;;;;;2.20;1.67;;;;;12.40;95751.00;;;;5056622;28;20071;-62
2024/02/10 03:43:48;;;;;;;1.60;1.50;;;;;12.30;95750.00;;;;5055416;28;20059;-61
2024/02/10 03:46:15;;;;;;;2.63;1.60;;;;;12.30;95743.00;;;;5053533;28;20069;-61
2024/02/10 03:48:44;;;;;;;2.30;1.55;;;;;12.40;95748.00;;;;5051903;28;20063;-62
2024/02/10 03:51:12;;;;;;;2.05;1.73;;;;;12.40;95751.00;;;;5052505;28;20435;-62
2024/02/10 03:53:38;;;;;;;3.00;1.75;;;;;12.50;95746.00;;;;5051989;28;20561;-62
2024/02/10 03:56:11;;;;;;;2.45;1.65;;;;;12.50;95744.00;;;;5052517;28;20123;-61
2024/02/10 03:58:43;;;;;;;3.53;1.88;;;;;12.40;95741.00;;;;5052378;28;20127;-61
2024/02/10 04:01:13;;;;;;;4.20;2.35;;;;;12.40;95746.00;;;;5051930;28;20040;-61
2024/02/10 04:03:44;;;;;;;3.15;1.75;;;;;12.30;95748.00;;;;5052056;28;20045;-60
2024/02/10 04:06:15;;;;;;;2.08;1.88;;;;;12.30;95744.00;;;;5052279;28;20048;-61
2024/02/10 04:08:46;;;;;;;1.67;1.58;;;;;12.30;95737.00;;;;5052456;28;20410;-60
2024/02/10 04:11:14;;;;;;;2.00;1.80;;;;;12.40;95741.00;;;;5052614;28;20406;-61
2024/02/10 04:13:41;;;;;;;3.85;1.95;;;;;12.30;95739.00;;;;5051656;28;20076;-59
2024/02/10 04:16:12;;;;;;;3.50;1.95;;;;;12.40;95741.00;;;;5052294;28;20049;-61
2024/02/10 04:18:40;;;;;;;3.35;2.47;;;;;12.30;95736.00;;;;5052202;28;20045;-61
2024/02/10 04:21:08;;;;;;;4.43;2.63;;;;;12.30;95741.00;;;;5052015;28;20037;-60
2024/02/10 04:23:37;;;;;;;2.40;2.17;;;;;12.40;95744.00;;;;5051462;28;20047;-59
2024/02/10 04:26:07;;;;;;;2.45;2.00;;;;;12.40;95742.00;;;;5051932;28;20044;-60
2024/02/10 04:28:34;;;;;;;2.78;2.33;;;;;12.40;95748.00;;;;5051830;28;20045;-60
2024/02/10 04:31:00;;;;;;;2.53;2.03;;;;;12.30;95739.00;;;;5051987;28;20128;-60
2024/02/10 04:33:27;;;;;;;2.00;1.80;;;;;12.20;95734.00;;;;5051490;28;20487;-60
2024/02/10 04:35:54;;;;;;;6.28;2.00;;;;;12.00;95737.00;;;;5052372;28;20036;-60
2024/02/10 04:38:22;;;;;;;3.53;1.73;;;;;12.10;95720.00;;;;5051883;28;20405;-59
2024/02/10 04:40:50;;;;;;;1.88;1.63;;;;;12.00;95723.00;;;;5051919;28;20095;-60
2024/02/10 04:43:19;;;;;;;2.25;1.52;;;;;11.90;95719.00;;;;5051983;28;20528;-59
2024/02/10 04:45:48;;;;;;;3.85;1.92;;;;;11.90;95720.00;;;;5051659;28;20041;-57
2024/02/10 04:48:19;;;;;;;2.30;2.10;;;;;11.80;95721.00;;;;5051798;28;20057;-60
2024/02/10 04:50:47;;;;;;;3.33;2.20;;;;;11.80;95736.00;;;;5051874;28;20033;-60
2024/02/10 04:53:15;;;;;;;2.70;1.88;;;;;11.80;95733.00;;;;5051784;28;20589;-59
2024/02/10 04:55:43;;;;;;;3.45;2.53;;;;;11.90;95733.00;;;;5051207;28;20118;-59
2024/02/10 04:58:12;;;;;;;2.25;1.80;;;;;11.90;95725.00;;;;5050356;28;20099;-59
2024/02/10 05:00:39;;;;;;;4.50;2.00;;;;;11.80;95727.00;;;;5050320;28;20048;-59
2024/02/10 05:03:06;;;;;;;2.28;2.00;;;;;11.70;95727.00;;;;5051661;28;20052;-59
2024/02/10 05:05:32;;;;;;;6.03;2.15;;;;;11.70;95724.00;;;;5050174;28;20044;-59
2024/02/10 05:07:59;;;;;;;2.50;1.90;;;;;11.50;95719.00;;;;5051493;28;20049;-60
2024/02/10 05:10:26;;;;;;;3.13;2.13;;;;;11.30;95722.00;;;;5050254;28;20057;-60
2024/02/10 05:12:55;;;;;;;2.47;1.92;;;;;11.30;95724.00;;;;5054160;28;20536;-61
2024/02/10 05:15:24;;;;;;;2.05;1.85;;;;;11.20;95709.00;;;;5055161;28;20559;-59
2024/02/10 05:17:52;;;;;;;2.10;1.90;;;;;11.20;95715.00;;;;5055693;28;20056;-61
2024/02/10 05:20:21;;;;;;;4.25;2.20;;;;;11.30;95718.00;;;;5055677;28;20049;-62
2024/02/10 05:22:50;;;;;;;4.75;2.75;;;;;11.20;95720.00;;;;5055293;28;20132;-62
2024/02/10 05:25:19;;;;;;;3.33;2.20;;;;;11.30;95718.00;;;;5054861;28;20037;-62
2024/02/10 05:27:46;;;;;;;2.80;2.22;;;;;11.30;95720.00;;;;5055188;28;20098;-62
2024/02/10 05:30:24;;;;;;;4.10;2.30;;;;;11.20;95719.00;;;;5055404;28;20041;-62
2024/02/10 05:32:53;;;;;;;3.05;2.35;;;;;11.00;95715.00;;;;5053886;28;20048;-62
2024/02/10 05:35:20;;;;;;;3.40;2.17;;;;;10.80;95723.00;;;;5054569;28;20056;-61
2024/02/10 05:37:56;;;;;;;4.53;2.88;;;;;10.70;95719.00;;;;5053783;28;20457;-62
2024/02/10 05:40:24;;;;;;;4.30;2.67;;;;;10.60;95715.00;;;;5055246;28;20102;-62
2024/02/10 05:42:52;;;;;;;2.78;2.40;;;;;10.60;95711.00;;;;5055156;28;20509;-60
2024/02/10 05:45:20;;;;;;;2.95;2.17;;;;;10.60;95718.00;;;;5054382;28;20067;-60
2024/02/10 05:47:49;;;;;;;4.72;3.40;;;;;10.60;95715.00;;;;5054760;28;20099;-60
2024/02/10 05:50:18;;;;;;;5.47;3.40;;;;;10.60;95711.00;;;;5054727;28;20045;-60
2024/02/10 05:52:45;;;;;;;2.38;2.17;;;;;10.60;95701.00;;;;5054801;28;20037;-62
2024/02/10 05:55:17;;;;;;;3.75;2.65;;;;;10.60;95719.00;;;;5054137;28;20051;-59
2024/02/10 05:57:43;;;;;;;5.15;2.88;;;;;10.60;95721.00;;;;5054711;28;20567;-59
2024/02/10 06:00:11;;;;;;;2.80;2.50;;;;;10.60;95715.00;;;;5054688;28;20052;-58
2024/02/10 06:02:38;;;;;;;3.33;2.55;;;;;10.60;95709.00;;;;5054515;28;20049;-58
2024/02/10 06:05:09;;;;;;;2.55;2.35;;;;;10.60;95714.00;;;;5054118;28;20041;-61
2024/02/10 06:07:37;;;;;;;2.45;1.70;;;;;10.60;95701.00;;;;5054612;28;20080;-58
2024/02/10 06:10:12;;;;;;;3.95;2.30;;;;;10.60;95710.00;;;;5054826;28;20049;-59
2024/02/10 06:12:40;;;;;;;2.33;2.08;;;;;10.50;95697.00;;;;5053219;28;20116;-60
2024/02/10 06:15:10;;;;;;;2.13;1.92;;;;;10.30;95701.00;;;;5052665;28;20076;-61
2024/02/10 06:17:42;;;;;;;3.80;2.38;;;;;10.20;95708.00;;;;5054373;28;20041;-59
2024/02/10 06:20:17;;;;;;;3.25;2.50;;;;;10.10;95708.00;;;;5054546;28;20069;-61
2024/02/10 06:22:47;;;;;;;2.20;1.98;;;;;10.10;95717.00;;;;5054021;28;20052;-60
2024/02/10 06:25:25;;;;;;;2.60;2.40;;;;;10.10;95721.00;;;;5052586;28;20084;-61
2024/02/10 06:27:54;;;;;;;3.28;2.38;;;;;10.10;95726.00;;;;5054359;28;20072;-61
2024/02/10 06:30:25;;;;;;;3.65;1.98;;;;;10.10;95720.00;;;;5054044;28;20437;-61
2024/02/10 06:32:53;;;;;;;3.90;2.38;;;;;10.10;95709.00;;;;5054350;28;20120;-61
2024/02/10 06:35:20;;;;;;;4.03;2.28;;;;;10.00;95725.00;;;;5053572;28;20051;-61
2024/02/10 06:37:49;;;;;;;3.53;2.65;;;;;10.00;95725.00;;;;5054076;28;20124;-62
2024/02/10 06:40:16;;;;;;;6.13;4.15;;;;;10.00;95724.00;;;;5054109;28;20071;-61
2024/02/10 06:42:48;;;;;;;24.20;13.20;;;;;9.90;95724.00;;;;5053858;28;20045;-60
2024/02/10 06:45:16;;;;;;;3.38;2.60;;;;;10.00;95723.00;;;;5052231;28;20044;-59
2024/02/10 06:47:47;;;;;;;5.22;2.75;;;;;10.00;95722.00;;;;5053763;28;20041;-59
2024/02/10 06:50:14;;;;;;;2.60;2.28;;;;;9.90;95709.00;;;;5053582;28;20056;-60
2024/02/10 06:52:42;;;;;;;2.35;2.10;;;;;9.90;95721.00;;;;5053724;28;20043;-60
2024/02/10 06:55:12;;;;;;;2.25;2.05;;;;;9.80;95715.00;;;;5053314;28;20045;-60
2024/02/10 06:57:41;;;;;;;1.70;1.60;;;;;9.80;95724.00;;;;5053559;28;20060;-62
2024/02/10 07:00:14;;;;;;;3.65;2.70;;;;;9.80;95733.00;;;;5053962;28;20045;-59
2024/02/10 07:02:43;;;;;;;3.50;2.00;;;;;9.80;95729.00;;;;5053536;28;20449;-60
2024/02/10 07:05:18;;;;;;;2.47;2.00;;;;;9.90;95734.00;;;;5052917;28;20788;-60
2024/02/10 07:07:48;;;;;;;2.97;2.03;;;;;9.80;95732.00;;;;5053650;28;20041;-58
2024/02/10 07:10:20;;;;;;;3.83;2.20;;;;;9.80;95722.00;;;;5053507;28;20056;-59
2024/02/10 07:12:49;;;;;;;2.95;1.88;;;;;9.70;95723.00;;;;5053487;28;20068;-59
2024/02/10 07:15:18;;;;;;;3.03;1.90;;;;;9.70;95709.00;;;;5051632;28;20049;-60
2024/02/10 07:17:47;;;;;;;3.42;2.30;;;;;9.70;95717.00;;;;5053246;28;20494;-58
2024/02/10 07:20:18;;;;;;;2.40;2.20;;;;;9.70;95725.00;;;;5052935;28;20494;-57
2024/02/10 07:22:49;;;;;;;3.58;2.25;;;;;9.70;95720.00;;;;5051896;28;20414;-60
2024/02/10 07:25:17;;;;;;;2.70;2.25;;;;;9.70;95719.00;;;;5052395;28;20041;-60
2024/02/10 07:27:48;;;;;;;1.98;1.73;;;;;9.70;95715.00;;;;5052920;28;20470;-59
2024/02/10 07:30:17;;;;;;;2.80;2.10;;;;;9.70;95714.00;;;;5053093;28;20048;-61
2024/02/10 07:32:48;;;;;;;5.85;2.22;;;;;9.80;95717.00;;;;5053079;28;20132;-64
2024/02/10 07:35:21;;;;;;;4.20;2.50;;;;;9.90;95711.00;;;;5051686;28;20462;-62
2024/02/10 07:37:49;;;;;;;4.00;1.92;;;;;9.90;95714.00;;;;5053081;28;20469;-61
2024/02/10 07:40:19;;;;;;;3.28;2.40;;;;;10.10;95724.00;;;;5052863;28;20045;-62
2024/02/10 07:42:46;;;;;;;4.13;2.92;;;;;10.20;95725.00;;;;5051533;28;20446;-61
2024/02/10 07:45:13;;;;;;;4.40;2.53;;;;;10.30;95734.00;;;;5052248;28;20474;-63
2024/02/10 07:47:39;;;;;;;5.95;3.97;;;;;10.30;95736.00;;;;5052695;28;20080;-62
2024/02/10 07:50:08;;;;;;;3.88;2.80;;;;;10.30;95738.00;;;;5052579;28;20130;-62
2024/02/10 07:52:34;;;;;;;3.03;2.58;;;;;10.40;95746.00;;;;5052534;28;20047;-61
2024/02/10 07:55:01;;;;;;;3.17;2.88;;;;;10.50;95742.00;;;;5052653;28;20044;-63
2024/02/10 07:57:32;;;;;;;3.22;2.15;;;;;10.60;95751.00;;;;5052922;28;20504;-62
2024/02/10 08:00:03;;;;;;;3.33;2.28;;;;;10.50;95741.00;;;;5053371;28;20049;-62
2024/02/10 08:02:29;;;;;;;3.55;2.80;;;;;10.50;95756.00;;;;5052942;28;20037;-61
2024/02/10 08:04:56;;;;;;;2.78;2.47;;;;;10.40;95751.00;;;;5051935;28;20040;-61
2024/02/10 08:07:29;;;;;;;3.08;2.40;;;;;10.40;95749.00;;;;5052369;28;20387;-63
2024/02/10 08:09:57;;;;;;;3.60;2.70;;;;;10.30;95741.00;;;;5052361;28;20068;-62
2024/02/10 08:12:25;;;;;;;3.00;1.98;;;;;10.40;95744.00;;;;5052308;28;20294;-62
2024/02/10 08:14:56;;;;;;;3.15;2.33;;;;;10.50;95745.00;;;;5051761;28;20053;-61
2024/02/10 08:17:24;;;;;;;4.65;2.40;;;;;10.60;95756.00;;;;5052340;28;20073;-61
2024/02/10 08:19:51;;;;;;;3.78;2.58;;;;;10.60;95758.00;;;;5052188;28;20045;-61
2024/02/10 08:22:18;;;;;;;4.43;3.60;;;;;10.70;95747.00;;;;5051154;28;20387;-66
2024/02/10 08:24:49;;;;;;;7.35;4.72;;;;;10.70;95751.00;;;;5051886;28;20077;-62
2024/02/10 08:27:17;;;;;;;6.07;3.80;;;;;10.80;95749.00;;;;5052296;28;20132;-63
2024/02/10 08:29:45;;;;;;;5.10;3.10;;;;;10.90;95744.00;;;;5053322;28;20111;-62
2024/02/10 08:32:13;;;;;;;5.03;2.60;;;;;11.00;95734.00;;;;5052285;28;20086;-61
2024/02/10 08:34:43;;;;;;;4.65;2.97;;;;;11.00;95728.00;;;;5054199;28;20041;-61
2024/02/10 08:37:12;;;;;;;6.35;4.05;;;;;11.00;95730.00;;;;5053031;28;20091;-61
2024/02/10 08:39:40;;;;;;;4.40;2.92;;;;;11.00;95723.00;;;;5052331;28;20056;-64
2024/02/10 08:42:07;;;;;;;4.80;2.90;;;;;11.00;95719.00;;;;5052067;28;20440;-62
2024/02/10 08:44:34;;;;;;;4.15;2.58;;;;;11.00;95711.00;;;;5052093;28;20041;-62
2024/02/10 08:47:03;;;;;;;3.55;2.90;;;;;11.00;95705.00;;;;5055497;28;20832;-62
2024/02/10 08:49:34;;;;;;;3.53;2.90;;;;;11.20;95703.00;;;;5056726;28;20049;-63
2024/02/10 08:52:03;;;;;;;5.10;4.13;;;;;11.20;95705.00;;;;5056821;28;20501;-63
2024/02/10 08:54:42;;;;;;;3.83;2.80;;;;;11.30;95706.00;;;;5054485;28;20041;-63
2024/02/10 08:57:13;;;;;;;2.85;2.40;;;;;11.30;95715.00;;;;5055984;28;20045;-60
2024/02/10 08:59:51;;;;;;;2.60;2.38;;;;;11.30;95717.00;;;;5055863;28;20648;-61
2024/02/10 09:02:18;;;;;;;2.83;2.47;;;;;11.30;95719.00;;;;5055602;28;20036;-60
2024/02/10 09:04:45;;;;;;;3.10;2.70;;;;;11.30;95721.00;;;;5055339;28;20094;-60
2024/02/10 09:07:12;;;;;;;4.45;3.67;;;;;11.40;95731.00;;;;5055887;28;20099;-61
2024/02/10 09:09:41;;;;;;;3.50;2.70;;;;;11.50;95727.00;;;;5056010;28;20040;-61
2024/02/10 09:12:08;;;;;;;16.08;3.97;;;;;11.60;95720.00;;;;5056109;28;20049;-63
2024/02/10 09:14:35;;;;;;;6.43;2.75;;;;;11.60;95726.00;;;;5054250;28;20044;-61
2024/02/10 09:17:01;;;;;;;3.72;2.40;;;;;11.50;95728.00;;;;5055491;28;20041;-63
2024/02/10 09:19:29;;;;;;;3.30;2.35;;;;;11.50;95726.00;;;;5056040;28;20041;-62
2024/02/10 09:21:58;;;;;;;2.38;2.10;;;;;11.50;95723.00;;;;5054270;28;20048;-63
2024/02/10 09:24:26;;;;;;;4.10;2.90;;;;;11.50;95730.00;;;;5055053;28;20041;-63
2024/02/10 09:26:55;;;;;;;6.22;2.65;;;;;11.60;95732.00;;;;5056239;28;20052;-63
2024/02/10 09:29:22;;;;;;;3.38;2.90;;;;;11.70;95735.00;;;;5055738;28;20052;-63
2024/02/10 09:31:51;;;;;;;5.60;3.97;;;;;11.80;95735.00;;;;5054449;28;20041;-62
2024/02/10 09:34:18;;;;;;;3.90;3.20;;;;;11.90;95735.00;;;;5054916;28;20052;-63
2024/02/10 09:36:45;;;;;;;5.22;3.17;;;;;11.90;95735.00;;;;5055412;28;20124;-63
2024/02/10 09:39:15;;;;;;;4.65;2.88;;;;;11.90;95736.00;;;;5055590;28;20115;-64
2024/02/10 09:41:43;;;;;;;3.67;2.13;;;;;12.00;95731.00;;;;5057565;28;20060;-63
2024/02/10 09:44:10;;;;;;;3.42;2.88;;;;;12.00;95743.00;;;;5058768;28;20041;-62
2024/02/10 09:46:38;;;;;;;3.45;3.15;;;;;12.00;95745.00;;;;5060023;28;20119;-63
2024/02/10 09:49:09;;;;;;;4.65;3.00;;;;;12.00;95742.00;;;;5059274;28;20098;-63
2024/02/10 09:51:40;;;;;;;2.67;2.47;;;;;12.00;95749.00;;;;5058391;28;20056;-64
2024/02/10 09:54:09;;;;;;;4.07;3.00;;;;;12.00;95746.00;;;;5058034;28;20514;-63
2024/02/10 09:56:36;;;;;;;4.40;3.22;;;;;12.10;95742.00;;;;5056978;28;20045;-63
2024/02/10 09:59:03;;;;;;;3.17;2.67;;;;;12.10;95748.00;;;;5054782;28;20498;-63
2024/02/10 10:01:32;;;;;;;5.03;3.00;;;;;12.10;95741.00;;;;5055348;28;20044;-62
2024/02/10 10:03:59;;;;;;;3.13;2.83;;;;;12.20;95750.00;;;;5054672;28;20053;-62
2024/02/10 10:06:26;;;;;;;5.25;3.15;;;;;12.20;95747.00;;;;5055359;28;20559;-62
2024/02/10 10:08:53;;;;;;;3.72;3.33;;;;;12.20;95748.00;;;;5054203;28;20128;-63
2024/02/10 10:11:21;;;;;;;6.30;3.03;;;;;12.20;95748.00;;;;5056584;28;20524;-62
2024/02/10 10:13:48;;;;;;;5.57;3.42;;;;;12.30;95742.00;;;;5055675;28;20069;-63
2024/02/10 10:16:15;;;;;;;3.70;3.15;;;;;12.30;95741.00;;;;5055846;28;20120;-63
2024/02/10 10:18:51;;;;;;;4.75;3.25;;;;;12.30;95738.00;;;;5056693;28;20178;-63
2024/02/10 10:21:18;;;;;;;3.78;2.97;;;;;12.50;95742.00;;;;5056409;28;20124;-62
2024/02/10 10:23:46;;;;;;;3.10;2.80;;;;;12.60;95747.00;;;;5057468;28;20136;-62
2024/02/10 10:26:13;;;;;;;3.08;2.78;;;;;12.60;95746.00;;;;5058160;28;20045;-64
2024/02/10 10:28:44;;;;;;;3.67;2.55;;;;;12.70;95742.00;;;;5059166;28;20095;-64
2024/02/10 10:31:12;;;;;;;4.25;3.80;;;;;12.70;95732.00;;;;5058451;28;20087;-62
2024/02/10 10:33:45;;;;;;;4.95;3.08;;;;;12.70;95727.00;;;;5057409;28;20497;-63
2024/02/10 10:36:16;;;;;;;4.60;3.40;;;;;12.70;95728.00;;;;5054982;28;20041;-62
2024/02/10 10:38:46;;;;;;;4.00;3.08;;;;;12.90;95727.00;;;;5055014;28;20437;-61
2024/02/10 10:41:18;;;;;;;4.75;3.30;;;;;12.90;95731.00;;;;5054781;28;20037;-62
2024/02/10 10:43:45;;;;;;;7.65;5.93;;;;;13.00;95739.00;;;;5036332;28;20115;-63
2024/02/10 10:46:16;;;;;;;8.82;6.50;;;;;13.00;95722.00;;;;5054317;28;20041;-62
2024/02/10 10:48:44;;;;;;;4.32;3.28;;;;;13.20;95718.00;;;;5053332;28;20139;-64
2024/02/10 10:51:13;;;;;;;5.95;3.58;;;;;13.20;95716.00;;;;5054297;28;20040;-62
2024/02/10 10:53:41;;;;;;;6.20;3.80;;;;;13.20;95708.00;;;;5054568;28;20134;-62
2024/02/10 10:56:10;;;;;;;3.78;3.38;;;;;13.30;95707.00;;;;5054899;28;20040;-60
2024/02/10 10:58:46;;;;;;;3.20;2.85;;;;;13.40;95694.00;;;;5055287;28;20056;-61
2024/02/10 11:01:20;;;;;;;3.60;2.95;;;;;13.40;95684.00;;;;5055689;28;20033;-61
2024/02/10 11:03:48;;;;;;;3.10;2.80;;;;;13.30;95674.00;;;;5055773;28;20041;-61
2024/02/10 11:06:19;;;;;;;5.15;2.92;;;;;13.30;95681.00;;;;5055913;28;20094;-60
2024/02/10 11:08:53;;;;;;;2.88;2.25;;;;;13.30;95675.00;;;;5055169;28;20048;-62
2024/02/10 11:11:19;;;;;;;2.90;2.50;;;;;13.30;95670.00;;;;5054551;28;20037;-62
2024/02/10 11:13:46;;;;;;;3.58;3.00;;;;;13.30;95662.00;;;;5054123;28;20033;-63
2024/02/10 11:16:14;;;;;;;2.85;2.65;;;;;13.40;95658.00;;;;5054146;28;20055;-62
2024/02/10 11:18:55;;;;;;;2.97;2.65;;;;;13.50;95664.00;;;;5052590;28;20041;-61
2024/02/10 11:21:29;;;;;;;2.75;2.55;;;;;13.60;95661.00;;;;5053973;28;20045;-62
2024/02/10 11:24:05;;;;;;;4.25;3.17;;;;;13.60;95646.00;;;;5053306;28;20037;-62
2024/02/10 11:26:36;;;;;;;3.90;3.10;;;;;13.70;95640.00;;;;5053876;28;20045;-64
2024/02/10 11:29:07;;;;;;;4.43;2.65;;;;;13.60;95639.00;;;;5052343;28;20049;-62
2024/02/10 11:31:43;;;;;;;4.40;3.63;;;;;13.60;95633.00;;;;5052948;28;20478;-63
2024/02/10 11:34:14;;;;;;;3.63;3.33;;;;;13.70;95627.00;;;;5053300;28;20037;-64
2024/02/10 11:36:48;;;;;;;4.20;3.20;;;;;13.60;95618.00;;;;5057087;28;20053;-63
2024/02/10 11:39:16;;;;;;;4.50;3.90;;;;;13.60;95617.00;;;;5056053;28;20041;-63
2024/02/10 11:41:42;;;;;;;5.63;4.25;;;;;13.60;95602.00;;;;5055444;28;20053;-63
2024/02/10 11:44:09;;;;;;;6.68;4.25;;;;;13.60;95599.00;;;;5055679;28;20044;-63
2024/02/10 11:46:36;;;;;;;5.13;3.75;;;;;13.60;95602.00;;;;5056332;28;20132;-63
2024/02/10 11:49:03;;;;;;;7.10;3.83;;;;;13.60;95615.00;;;;5053129;28;20064;-63
2024/02/10 11:51:31;;;;;;;4.88;3.42;;;;;13.60;95607.00;;;;5053453;28;20053;-63
2024/02/10 11:53:58;;;;;;;4.30;3.83;;;;;13.70;95596.00;;;;5052565;28;20052;-62
2024/02/10 11:56:25;;;;;;;4.35;3.95;;;;;13.70;95584.00;;;;5052954;28;20449;-63
2024/02/10 11:58:55;;;;;;;4.60;3.10;;;;;13.60;95583.00;;;;5053255;28;20136;-63
2024/02/10 12:01:22;;;;;;;5.35;3.85;;;;;13.60;95586.00;;;;5051447;28;20405;-63
2024/02/10 12:03:50;;;;;;;4.47;3.95;;;;;13.60;95585.00;;;;5052246;28;20128;-63
2024/02/10 12:06:20;;;;;;;3.72;3.35;;;;;13.70;95584.00;;;;5052322;28;20071;-62
2024/02/10 12:08:49;;;;;;;4.75;3.67;;;;;13.70;95591.00;;;;5053677;28;20054;-63
2024/02/10 12:11:16;;;;;;;5.50;3.83;;;;;13.70;95585.00;;;;5053277;28;20052;-63
2024/02/10 12:13:45;;;;;;;5.10;3.50;;;;;13.70;95579.00;;;;5052356;28;20053;-62
2024/02/10 12:16:12;;;;;;;4.38;3.42;;;;;13.80;95583.00;;;;5051502;28;20056;-64
2024/02/10 12:18:39;;;;;;;5.05;3.70;;;;;13.80;95570.00;;;;5051448;28;20131;-62
2024/02/10 12:21:06;;;;;;;4.50;3.70;;;;;13.80;95580.00;;;;5051885;28;20112;-62
2024/02/10 12:23:33;;;;;;;6.15;4.00;;;;;13.80;95578.00;;;;5050673;28;20467;-63
2024/02/10 12:26:02;;;;;;;9.38;5.88;;;;;13.80;95568.00;;;;5051234;28;20502;-63